Nearby METAR Reports

 

LEVC - Valencia (civ/Mi, Spain
Distacia desde Piles: NO 69km
Actu.: 21/09/2017 14:00
Few Clouds
Few Clouds
 Viento del E
Viento: E 11 km/h
Temperatura: 26°C
Rocío: 18°C
Humedad: 61%
Barómetro: 1017 hPa
Clouds: Few Clouds
Visibility: 10 km
Cloud details: Few Clouds 762 m
2017/09/21 12:00 LEVC 211200Z 09006KT 020V140 9999 FEW025 26/18 Q1017 NOSIG
LEAL - Alicante/El Alte, Spain
Distacia desde Piles: SSO 94km
Actu.: 21/09/2017 14:00
Despejado
Despejado
 Viento del E
Viento: E 15 km/h
Temperatura: 26°C
Rocío: 12°C
Humedad: 42%
Barómetro: 1017 hPa
Resumen: Despejado
Visibility: greater than 10 km
2017/09/21 12:00 LEAL 211200Z 09008KT 060V150 CAVOK 26/12 Q1017 NOSIG
 
LEIB - Ibiza/Es Codola, Spain
Distacia desde Piles: E 119km
Actu.: 21/09/2017 14:00
Few Clouds
Few Clouds
 Viento del E
Viento: E 15 km/h
Temperatura: 25°C
Rocío: 17°C
Humedad: 61%
Barómetro: 1018 hPa
Clouds: Few Clouds
Visibility: 10 km
Cloud details: Few Clouds 853 m
2017/09/21 12:00 LEIB 211200Z 10008KT 070V140 9999 FEW028 25/17 Q1018 NOSIG
LELC - San Javier(Mil/C, Spain
Distacia desde Piles: SSO 154km
Actu.: 21/09/2017 14:00
Few Clouds
Few Clouds
 Viento del NE
Viento: NE 17 km/h
Temperatura: 26°C
Rocío: 19°C
Humedad: 65%
Barómetro: 1017 hPa
Clouds: Few Clouds
Visibility: 10 km
Cloud details: Few Clouds 640 m
2017/09/21 12:00 LELC 211200Z 05009KT 010V100 9999 FEW021 26/19 Q1017 NOSIG
 
LERI - Alcantarilla(Sp-, Spain
Distacia desde Piles: SO 158km
Actu.: 21/09/2017 14:00
Despejado
Despejado
 Viento del varies
Viento: varies 7 km/h
Temperatura: 27°C
Heat Index: 27°C
Rocío: 15°C
Humedad: 48%
Barómetro: 1017 hPa
Resumen: Despejado
Visibility: greater than 10 km
2017/09/21 12:00 LERI 211200Z VRB04KT CAVOK 27/15 Q1017 NOSIG
LEAB - Albacete (civ/Mi, Spain
Distacia desde Piles: O 160km
Actu.: 21/09/2017 14:00
Despejado
Despejado
 Viento del varies
Viento: varies 9 km/h
Temperatura: 26°C
Rocío: 10°C
Humedad: 37%
Barómetro: 1018 hPa
Resumen: Despejado
Visibility: greater than 10 km
2017/09/21 12:00 LEAB 211200Z VRB05KT CAVOK 26/10 Q1018 NOSIG